Time;durP1;ratioP1;P1;durP2;ratioP2;P2;SDS_P1;SDS_P2;PMS_P1;PMS_P2;Temp;Humidity;BMP_temperature;BMP_pressure;BME280_temperature;BME280_humidity;BME280_pressure;Samples;Min_cycle;Max_cycle;Signal;HPM_P1;HPM_P2
2022/08/12 00:44:23;;;;;;;8.38;7.57;;;;;;;;;;4994960;28;20040;-73
2022/08/12 00:46:54;;;;;;;8.50;7.68;;;;;;;;;;4995526;28;20050;-73
2022/08/12 00:49:22;;;;;;;8.77;7.80;;;;;;;;;;4995059;28;20130;-73
2022/08/12 00:52:05;;;;;;;8.23;7.63;;;;;;;;;;4995255;28;20042;-73
2022/08/12 00:54:34;;;;;;;7.78;7.18;;;;;;;;;;4995519;28;20513;-73
2022/08/12 00:57:03;;;;;;;8.68;7.97;;;;;;;;;;4995181;28;20042;-73
2022/08/12 00:59:30;;;;;;;8.48;7.88;;;;;;;;;;4995057;28;20044;-73
2022/08/12 01:01:59;;;;;;;8.27;7.47;;;;;;;;;;4994720;28;20501;-74
2022/08/12 01:12:42;;;;;;;8.80;8.00;;;;;;;;;;4994561;28;20417;-73
2022/08/12 01:15:11;;;;;;;9.02;8.32;;;;;;;;;;4994812;28;20066;-73
2022/08/12 01:17:37;;;;;;;8.60;7.70;;;;;;;;;;4995073;28;20050;-73
2022/08/12 01:20:06;;;;;;;8.52;7.82;;;;;;;;;;4994747;28;20437;-73
2022/08/12 01:22:50;;;;;;;8.05;7.25;;;;;;;;;;4994669;28;20477;-73
2022/08/12 01:25:17;;;;;;;8.25;7.45;;;;;;;;;;4994742;28;20511;-74
2022/08/12 01:27:45;;;;;;;8.35;7.65;;;;;;;;;;4995289;28;20050;-74
2022/08/12 01:30:12;;;;;;;7.75;7.15;;;;;;;;;;4994830;28;20042;-74
2022/08/12 01:32:39;;;;;;;8.52;7.93;;;;;;;;;;4994489;28;20593;-73
2022/08/12 01:35:13;;;;;;;8.18;7.50;;;;;;;;;;4994976;28;20073;-73
2022/08/12 01:37:46;;;;;;;9.02;8.30;;;;;;;;;;4995187;28;20046;-73
2022/08/12 01:40:15;;;;;;;8.70;7.50;;;;;;;;;;4995999;28;20057;-73
2022/08/12 01:42:51;;;;;;;9.02;8.32;;;;;;;;;;4996723;28;20046;-73
2022/08/12 01:45:21;;;;;;;8.50;7.80;;;;;;;;;;4997968;28;20125;-73
2022/08/12 01:47:50;;;;;;;10.35;7.53;;;;;;;;;;4997112;28;20081;-74
2022/08/12 01:50:55;;;;;;;8.55;7.70;;;;;;;;;;4997988;28;20124;-73
2022/08/12 01:53:24;;;;;;;7.60;7.00;;;;;;;;;;4919195;29;20056;-73
2022/08/12 01:55:51;;;;;;;8.00;7.35;;;;;;;;;;4916603;29;20051;-73
2022/08/12 02:01:20;;;;;;;7.82;7.13;;;;;;;;;;4996033;28;20044;-73
2022/08/12 02:12:56;;;;;;;7.13;6.53;;;;;;;;;;4998007;28;20453;-73
2022/08/12 02:15:51;;;;;;;7.40;6.80;;;;;;;;;;4997853;28;20497;-73
2022/08/12 02:18:25;;;;;;;7.30;6.70;;;;;;;;;;4971238;28;20075;-74
2022/08/12 02:21:01;;;;;;;8.77;6.88;;;;;;;;;;4998696;28;20053;-73
2022/08/12 02:23:28;;;;;;;8.32;7.50;;;;;;;;;;4998503;28;20069;-73
2022/08/12 02:26:05;;;;;;;7.43;6.82;;;;;;;;;;4997953;28;20398;-74
2022/08/12 02:28:31;;;;;;;7.80;7.20;;;;;;;;;;4998096;28;20092;-73
2022/08/12 02:31:01;;;;;;;8.20;7.38;;;;;;;;;;4997813;28;20050;-74
2022/08/12 02:33:28;;;;;;;7.63;6.88;;;;;;;;;;4997041;28;20046;-74
2022/08/12 02:35:54;;;;;;;8.27;7.65;;;;;;;;;;4997799;28;20100;-74
2022/08/12 02:38:21;;;;;;;7.70;7.10;;;;;;;;;;4998195;28;20042;-74
2022/08/12 02:40:51;;;;;;;7.10;6.57;;;;;;;;;;4997702;28;20046;-74
2022/08/12 02:43:43;;;;;;;7.78;7.18;;;;;;;;;;4998208;28;20046;-74
2022/08/12 02:46:10;;;;;;;7.70;6.85;;;;;;;;;;4967834;28;20497;-74
2022/08/12 02:48:46;;;;;;;8.32;6.97;;;;;;;;;;4997090;28;20133;-74
2022/08/12 02:51:16;;;;;;;7.43;6.82;;;;;;;;;;4996325;28;20437;-74
2022/08/12 02:53:43;;;;;;;7.85;7.25;;;;;;;;;;4997743;28;20279;-74
2022/08/12 02:56:11;;;;;;;7.88;7.28;;;;;;;;;;4997376;28;20073;-74
2022/08/12 02:58:38;;;;;;;7.95;7.35;;;;;;;;;;4997573;28;20058;-74
2022/08/12 03:01:08;;;;;;;7.78;7.07;;;;;;;;;;4997062;28;20413;-74
2022/08/12 03:03:35;;;;;;;7.50;6.93;;;;;;;;;;4996754;28;20050;-74
2022/08/12 03:06:05;;;;;;;7.30;6.80;;;;;;;;;;4997476;28;20070;-74
2022/08/12 03:08:35;;;;;;;7.85;7.25;;;;;;;;;;4997481;28;20104;-74
2022/08/12 03:11:08;;;;;;;8.50;7.37;;;;;;;;;;4997121;28;20050;-73
2022/08/12 03:13:37;;;;;;;8.30;7.53;;;;;;;;;;4997668;28;20042;-74
2022/08/12 03:16:04;;;;;;;7.75;7.15;;;;;;;;;;4997315;28;20076;-74
2022/08/12 03:18:31;;;;;;;7.38;6.88;;;;;;;;;;4996706;28;20108;-74
2022/08/12 03:20:58;;;;;;;7.75;6.95;;;;;;;;;;4996732;28;20178;-74
2022/08/12 03:23:25;;;;;;;7.30;6.72;;;;;;;;;;4996669;28;20038;-73
2022/08/12 03:25:52;;;;;;;7.60;7.00;;;;;;;;;;4996587;28;20449;-74
2022/08/12 03:31:05;;;;;;;7.78;7.05;;;;;;;;;;4996259;28;20044;-74
2022/08/12 03:33:36;;;;;;;8.02;7.35;;;;;;;;;;4996730;28;20078;-74
2022/08/12 03:36:07;;;;;;;6.95;6.38;;;;;;;;;;4996792;28;20046;-74
2022/08/12 03:38:36;;;;;;;9.52;7.30;;;;;;;;;;4997220;28;20074;-73
2022/08/12 04:00:46;;;;;;;7.53;6.80;;;;;;;;;;4995719;28;20042;-74
2022/08/12 04:05:58;;;;;;;7.88;7.28;;;;;;;;;;4995647;28;20122;-73
2022/08/12 04:08:25;;;;;;;8.02;7.38;;;;;;;;;;4996369;28;20046;-74
2022/08/12 04:13:37;;;;;;;8.00;6.70;;;;;;;;;;4995501;28;20598;-74
2022/08/12 04:16:05;;;;;;;9.27;7.70;;;;;;;;;;4995922;28;20493;-74
2022/08/12 04:18:32;;;;;;;7.32;6.50;;;;;;;;;;4995831;28;20050;-74
2022/08/12 04:20:58;;;;;;;7.97;7.20;;;;;;;;;;4995563;28;20042;-74
2022/08/12 04:23:26;;;;;;;7.25;6.70;;;;;;;;;;4995823;28;20137;-73
2022/08/12 04:25:52;;;;;;;8.05;7.45;;;;;;;;;;4995512;28;20038;-74
2022/08/12 04:28:24;;;;;;;8.07;7.47;;;;;;;;;;4996185;28;20053;-74
2022/08/12 04:30:50;;;;;;;8.80;7.70;;;;;;;;;;4995672;28;20053;-74
2022/08/12 04:33:18;;;;;;;9.85;8.95;;;;;;;;;;4995681;28;20050;-74
2022/08/12 04:35:45;;;;;;;8.25;7.53;;;;;;;;;;4995209;28;20077;-73
2022/08/12 04:38:11;;;;;;;8.02;7.25;;;;;;;;;;4995871;28;20057;-73
2022/08/12 04:40:37;;;;;;;9.15;8.30;;;;;;;;;;4995805;28;20053;-74
2022/08/12 04:43:04;;;;;;;10.85;9.77;;;;;;;;;;4995501;28;20065;-74
2022/08/12 04:45:31;;;;;;;16.05;11.80;;;;;;;;;;5008105;28;20173;-74
2022/08/12 04:47:58;;;;;;;12.98;11.45;;;;;;;;;;5014006;28;20058;-74
2022/08/12 04:50:25;;;;;;;11.45;10.32;;;;;;;;;;5014206;28;20068;-74
2022/08/12 04:52:51;;;;;;;12.25;11.15;;;;;;;;;;5015533;28;20046;-74
2022/08/12 04:55:17;;;;;;;12.82;10.98;;;;;;;;;;5015269;28;20041;-74
2022/08/12 04:57:43;;;;;;;13.55;12.25;;;;;;;;;;5014184;28;20038;-74
2022/08/12 05:00:13;;;;;;;13.75;12.35;;;;;;;;;;5014693;28;20037;-73
2022/08/12 05:02:39;;;;;;;14.23;12.68;;;;;;;;;;5011559;28;20400;-74
2022/08/12 05:05:09;;;;;;;14.35;12.43;;;;;;;;;;5014507;28;20048;-74
2022/08/12 05:07:35;;;;;;;13.37;12.10;;;;;;;;;;5003927;28;20139;-74
2022/08/12 05:10:02;;;;;;;14.20;12.10;;;;;;;;;;4993907;28;20050;-74
2022/08/12 05:12:32;;;;;;;13.15;11.82;;;;;;;;;;5008774;28;20444;-74
2022/08/12 05:14:59;;;;;;;13.70;12.25;;;;;;;;;;5014331;28;20042;-73
2022/08/12 05:17:26;;;;;;;13.52;12.25;;;;;;;;;;5009994;28;20038;-75
2022/08/12 05:19:52;;;;;;;13.95;12.52;;;;;;;;;;4996112;28;20124;-75
2022/08/12 05:22:18;;;;;;;14.13;11.35;;;;;;;;;;5014509;28;20037;-79
2022/08/12 05:24:45;;;;;;;11.70;10.70;;;;;;;;;;4997008;28;20030;-80
2022/08/12 05:27:11;;;;;;;13.25;11.13;;;;;;;;;;5013612;28;20034;-77
2022/08/12 05:29:39;;;;;;;12.57;11.40;;;;;;;;;;5011069;28;20041;-77
2022/08/12 05:32:10;;;;;;;12.77;11.45;;;;;;;;;;5013579;28;20133;-78
2022/08/12 05:34:36;;;;;;;12.00;10.88;;;;;;;;;;4996649;28;20050;-78
2022/08/12 05:37:03;;;;;;;12.65;11.50;;;;;;;;;;5014359;28;20037;-75
2022/08/12 05:39:29;;;;;;;13.25;11.98;;;;;;;;;;5014786;28;20038;-77
2022/08/12 05:41:55;;;;;;;12.77;11.68;;;;;;;;;;5014376;28;20045;-73
2022/08/12 05:44:21;;;;;;;12.48;11.35;;;;;;;;;;5014763;28;20029;-73
2022/08/12 05:46:47;;;;;;;13.57;12.27;;;;;;;;;;5014512;28;20137;-73
2022/08/12 05:49:15;;;;;;;13.77;12.57;;;;;;;;;;5014009;28;20054;-73
2022/08/12 05:51:41;;;;;;;16.35;14.15;;;;;;;;;;5014272;28;20380;-74
2022/08/12 05:54:08;;;;;;;15.75;13.88;;;;;;;;;;5014802;28;20400;-73
2022/08/12 05:56:35;;;;;;;14.40;13.02;;;;;;;;;;5014281;28;20065;-73
2022/08/12 05:59:02;;;;;;;13.90;12.50;;;;;;;;;;5014680;28;20034;-73
2022/08/12 06:01:29;;;;;;;13.93;12.27;;;;;;;;;;5014517;28;20563;-75
2022/08/12 06:03:55;;;;;;;15.75;12.85;;;;;;;;;;5013838;28;20172;-73
2022/08/12 06:06:23;;;;;;;13.75;12.30;;;;;;;;;;5014192;28;20038;-74
2022/08/12 06:08:54;;;;;;;14.63;13.10;;;;;;;;;;4996889;28;20397;-73
2022/08/12 06:11:21;;;;;;;14.18;12.77;;;;;;;;;;5014472;28;20090;-73
2022/08/12 06:13:47;;;;;;;12.50;11.20;;;;;;;;;;5014395;28;20038;-73
2022/08/12 06:16:17;;;;;;;14.45;12.90;;;;;;;;;;5014163;28;20052;-73
2022/08/12 06:18:43;;;;;;;12.98;11.65;;;;;;;;;;5014182;28;20132;-74
2022/08/12 06:21:11;;;;;;;13.63;12.18;;;;;;;;;;5014664;28;20045;-73
2022/08/12 06:23:37;;;;;;;13.95;12.55;;;;;;;;;;5014045;28;20099;-73
2022/08/12 06:26:06;;;;;;;12.98;11.88;;;;;;;;;;5015856;28;20042;-73
2022/08/12 06:28:32;;;;;;;12.35;11.32;;;;;;;;;;5017254;28;20034;-73
2022/08/12 06:30:59;;;;;;;14.13;12.65;;;;;;;;;;5017143;28;20045;-74
2022/08/12 06:33:25;;;;;;;12.95;11.65;;;;;;;;;;5016897;28;20038;-73
2022/08/12 06:35:52;;;;;;;13.57;12.13;;;;;;;;;;5017348;28;20038;-74
2022/08/12 06:38:19;;;;;;;11.68;10.65;;;;;;;;;;5017715;28;20501;-73
2022/08/12 06:43:31;;;;;;;12.82;11.57;;;;;;;;;;5016814;28;20045;-73
2022/08/12 06:45:57;;;;;;;12.27;11.05;;;;;;;;;;5017765;28;20049;-73
2022/08/12 06:48:24;;;;;;;12.43;11.32;;;;;;;;;;5017132;28;20081;-73
2022/08/12 06:50:50;;;;;;;13.40;12.13;;;;;;;;;;5017383;28;20050;-73
2022/08/12 06:53:16;;;;;;;12.38;11.05;;;;;;;;;;5017432;28;20046;-73
2022/08/12 06:55:43;;;;;;;12.85;11.30;;;;;;;;;;5017485;28;20033;-73
2022/08/12 06:58:10;;;;;;;14.98;12.02;;;;;;;;;;5017811;28;20563;-73
2022/08/12 07:00:37;;;;;;;12.93;11.73;;;;;;;;;;5017732;28;20161;-73
2022/08/12 07:03:04;;;;;;;12.20;11.10;;;;;;;;;;5016771;28;20037;-73
2022/08/12 07:05:30;;;;;;;11.57;10.40;;;;;;;;;;5017169;28;20042;-74
2022/08/12 07:08:00;;;;;;;10.65;9.75;;;;;;;;;;5017496;28;20485;-73
2022/08/12 07:10:26;;;;;;;10.93;9.88;;;;;;;;;;5016716;28;20045;-73
2022/08/12 07:12:56;;;;;;;11.05;10.00;;;;;;;;;;5016824;28;20121;-74
2022/08/12 07:15:26;;;;;;;10.20;9.30;;;;;;;;;;5016908;28;20034;-73
2022/08/12 07:17:59;;;;;;;10.70;9.70;;;;;;;;;;5017149;28;20103;-73
2022/08/12 07:20:30;;;;;;;9.65;8.75;;;;;;;;;;5016584;28;20189;-74
2022/08/12 07:22:59;;;;;;;10.50;9.60;;;;;;;;;;5016615;28;20038;-73
2022/08/12 07:25:33;;;;;;;8.97;8.20;;;;;;;;;;5016842;28;20046;-74
2022/08/12 07:28:02;;;;;;;9.98;9.07;;;;;;;;;;5016428;28;20272;-73
2022/08/12 07:30:29;;;;;;;9.38;8.57;;;;;;;;;;5016525;28;20045;-73
2022/08/12 07:32:55;;;;;;;10.10;8.65;;;;;;;;;;5016304;28;20046;-73
2022/08/12 07:35:23;;;;;;;9.88;8.93;;;;;;;;;;5016534;28;20030;-73
2022/08/12 07:37:50;;;;;;;9.57;8.57;;;;;;;;;;5016566;28;20052;-74
2022/08/12 07:40:17;;;;;;;9.90;9.07;;;;;;;;;;5016177;28;20116;-73
2022/08/12 07:42:43;;;;;;;12.60;8.00;;;;;;;;;;5017009;28;20489;-74
2022/08/12 07:45:11;;;;;;;10.82;9.77;;;;;;;;;;5016446;28;20042;-74
2022/08/12 07:47:40;;;;;;;9.32;8.52;;;;;;;;;;5016441;28;20093;-74
2022/08/12 07:50:08;;;;;;;10.63;8.73;;;;;;;;;;5015905;28;20030;-74
2022/08/12 07:52:38;;;;;;;8.15;7.35;;;;;;;;;;5016295;28;20077;-74
2022/08/12 07:55:06;;;;;;;8.90;8.10;;;;;;;;;;5015827;28;20108;-74
2022/08/12 07:57:32;;;;;;;8.15;7.45;;;;;;;;;;5016527;28;20046;-74
2022/08/12 08:00:03;;;;;;;9.82;7.57;;;;;;;;;;5015819;28;20092;-74
2022/08/12 08:02:35;;;;;;;9.10;8.25;;;;;;;;;;5015345;28;20132;-74
2022/08/12 08:05:01;;;;;;;8.63;7.32;;;;;;;;;;5015396;28;20042;-75
2022/08/12 08:07:28;;;;;;;8.02;7.35;;;;;;;;;;5016353;28;20057;-74
2022/08/12 08:09:56;;;;;;;7.93;7.18;;;;;;;;;;5015619;28;20563;-74
2022/08/12 08:15:11;;;;;;;9.18;7.45;;;;;;;;;;5015058;28;20096;-74
2022/08/12 08:17:37;;;;;;;9.20;7.38;;;;;;;;;;5015827;28;20548;-74
2022/08/12 08:20:05;;;;;;;8.05;7.43;;;;;;;;;;5015253;28;20077;-74
2022/08/12 08:22:33;;;;;;;7.65;7.05;;;;;;;;;;5015421;28;20034;-74
2022/08/12 08:25:00;;;;;;;7.60;6.85;;;;;;;;;;5015449;28;20045;-73
2022/08/12 08:27:26;;;;;;;7.80;7.13;;;;;;;;;;5015941;28;20045;-74
2022/08/12 08:29:54;;;;;;;7.70;7.00;;;;;;;;;;5015482;28;20053;-73
2022/08/12 08:32:20;;;;;;;8.15;7.32;;;;;;;;;;5014698;28;20042;-74
2022/08/12 08:34:46;;;;;;;8.05;7.28;;;;;;;;;;5015266;28;20045;-73
2022/08/12 08:37:15;;;;;;;8.25;7.43;;;;;;;;;;5015563;28;20038;-73
2022/08/12 08:39:41;;;;;;;8.63;7.10;;;;;;;;;;5014859;28;20096;-74
2022/08/12 08:44:54;;;;;;;7.95;7.25;;;;;;;;;;5014629;28;20507;-74
2022/08/12 08:47:22;;;;;;;11.07;7.78;;;;;;;;;;5014154;28;20033;-74
2022/08/12 08:49:48;;;;;;;8.57;7.68;;;;;;;;;;5014299;28;20045;-73
2022/08/12 08:52:14;;;;;;;9.77;7.40;;;;;;;;;;5015252;28;20041;-74
2022/08/12 08:54:40;;;;;;;7.70;7.07;;;;;;;;;;5015458;28;20061;-75
2022/08/12 08:57:08;;;;;;;9.80;7.32;;;;;;;;;;5015029;28;20120;-75
2022/08/12 08:59:34;;;;;;;9.38;7.35;;;;;;;;;;5015023;28;20030;-74
2022/08/12 09:02:01;;;;;;;8.43;7.45;;;;;;;;;;5014940;28;20100;-74
2022/08/12 09:04:27;;;;;;;7.90;7.10;;;;;;;;;;5014515;28;20554;-75
2022/08/12 09:06:57;;;;;;;8.45;7.55;;;;;;;;;;5015106;28;20509;-74
2022/08/12 09:09:23;;;;;;;9.40;8.03;;;;;;;;;;5015024;28;20048;-75
2022/08/12 09:14:34;;;;;;;8.10;7.40;;;;;;;;;;5014232;28;20061;-74
2022/08/12 09:17:00;;;;;;;8.32;7.53;;;;;;;;;;4996715;28;20045;-74
2022/08/12 09:19:28;;;;;;;7.47;6.78;;;;;;;;;;5014526;28;20049;-74
2022/08/12 09:21:54;;;;;;;8.70;7.45;;;;;;;;;;4996997;28;20076;-74
2022/08/12 09:24:20;;;;;;;7.80;7.10;;;;;;;;;;5014616;28;20077;-74
2022/08/12 09:26:47;;;;;;;8.13;6.90;;;;;;;;;;5015223;28;20042;-73
2022/08/12 09:29:20;;;;;;;7.97;7.18;;;;;;;;;;5014237;28;20045;-73
2022/08/12 09:31:46;;;;;;;7.68;6.97;;;;;;;;;;5014846;28;20052;-74
2022/08/12 09:34:13;;;;;;;7.50;6.80;;;;;;;;;;5014435;28;20065;-73
2022/08/12 09:36:40;;;;;;;8.35;7.10;;;;;;;;;;5014575;28;20144;-74
2022/08/12 09:39:06;;;;;;;8.52;7.57;;;;;;;;;;5014167;28;20469;-73
2022/08/12 09:41:41;;;;;;;7.78;6.95;;;;;;;;;;5014469;28;20572;-73
2022/08/12 09:46:53;;;;;;;7.78;6.97;;;;;;;;;;5013516;28;20044;-73
2022/08/12 09:49:20;;;;;;;7.55;6.85;;;;;;;;;;5014478;28;20054;-73
2022/08/12 09:51:47;;;;;;;10.68;7.05;;;;;;;;;;5014358;28;20045;-73
2022/08/12 09:54:16;;;;;;;7.35;6.72;;;;;;;;;;5014599;28;20122;-73
2022/08/12 09:56:43;;;;;;;7.82;7.13;;;;;;;;;;5014307;28;20370;-73
2022/08/12 09:59:09;;;;;;;8.45;7.63;;;;;;;;;;5014572;28;20038;-73
2022/08/12 10:01:37;;;;;;;8.10;7.30;;;;;;;;;;5016712;28;20053;-73
2022/08/12 10:04:08;;;;;;;7.47;6.88;;;;;;;;;;5018145;28;20125;-73
2022/08/12 10:06:34;;;;;;;;;;;;;;;;;;5018177;28;20034;-73
2022/08/12 10:09:00;;;;;;;7.80;7.10;;;;;;;;;;5018240;28;20003;-74
2022/08/12 10:14:11;;;;;;;8.60;7.07;;;;;;;;;;5017604;28;20118;-72
2022/08/12 10:16:42;;;;;;;8.40;7.15;;;;;;;;;;5018127;28;20084;-72
2022/08/12 10:19:08;;;;;;;7.55;6.85;;;;;;;;;;5017572;28;20116;-72
2022/08/12 10:21:40;;;;;;;7.97;7.00;;;;;;;;;;5018022;28;20123;-72
2022/08/12 10:24:07;;;;;;;8.70;7.28;;;;;;;;;;5018086;28;20096;-72
2022/08/12 10:32:17;;;;;;;6.45;5.78;;;;;;;;;;5017319;28;20493;-73
2022/08/12 10:34:43;;;;;;;7.07;5.85;;;;;;;;;;4999888;28;20111;-73
2022/08/12 10:37:09;;;;;;;7.38;6.35;;;;;;;;;;5017824;28;20038;-73
2022/08/12 10:39:38;;;;;;;6.18;5.68;;;;;;;;;;5017943;28;20073;-74
2022/08/12 10:45:04;;;;;;;8.07;5.97;;;;;;;;;;5017051;28;20117;-73
2022/08/12 10:47:31;;;;;;;7.35;6.60;;;;;;;;;;5016893;28;20084;-73
2022/08/12 10:50:00;;;;;;;6.75;6.15;;;;;;;;;;5017309;28;20485;-73
2022/08/12 10:52:29;;;;;;;8.05;6.40;;;;;;;;;;4999733;28;20571;-73
2022/08/12 10:54:55;;;;;;;9.30;6.65;;;;;;;;;;5016930;28;20030;-73
2022/08/12 10:57:25;;;;;;;7.68;6.40;;;;;;;;;;5017041;28;20104;-73
2022/08/12 10:59:54;;;;;;;9.93;6.35;;;;;;;;;;5016601;28;20068;-74
2022/08/12 11:02:21;;;;;;;9.13;6.78;;;;;;;;;;5016712;28;20038;-74
2022/08/12 11:04:47;;;;;;;13.90;6.60;;;;;;;;;;5016530;28;20481;-73
2022/08/12 11:07:14;;;;;;;7.72;5.95;;;;;;;;;;5014991;28;20057;-72
2022/08/12 11:09:41;;;;;;;13.77;5.82;;;;;;;;;;5012623;28;20057;-72
2022/08/12 11:12:07;;;;;;;9.13;5.93;;;;;;;;;;4997298;28;20136;-72
2022/08/12 11:14:34;;;;;;;6.43;5.70;;;;;;;;;;5015860;28;20041;-73
2022/08/12 11:17:01;;;;;;;10.45;6.05;;;;;;;;;;5014278;28;20516;-70
2022/08/12 11:19:28;;;;;;;8.35;5.50;;;;;;;;;;5014664;28;20038;-70
2022/08/12 11:21:55;;;;;;;9.02;6.50;;;;;;;;;;5015418;28;20129;-70
2022/08/12 11:24:22;;;;;;;6.18;5.15;;;;;;;;;;5014964;28;20111;-70
2022/08/12 11:26:48;;;;;;;7.93;5.53;;;;;;;;;;5015619;28;20104;-69
2022/08/12 11:29:15;;;;;;;7.95;6.00;;;;;;;;;;5014920;28;20121;-69
2022/08/12 11:31:41;;;;;;;7.60;5.50;;;;;;;;;;5015554;28;20136;-70
2022/08/12 11:34:07;;;;;;;14.90;6.07;;;;;;;;;;5015364;28;20045;-72
2022/08/12 11:36:33;;;;;;;7.88;5.95;;;;;;;;;;5014263;28;20124;-71
2022/08/12 11:39:00;;;;;;;8.75;5.90;;;;;;;;;;5015772;28;20042;-69
2022/08/12 11:41:26;;;;;;;10.73;5.72;;;;;;;;;;5014973;28;20046;-67
2022/08/12 11:43:52;;;;;;;6.53;5.70;;;;;;;;;;5014542;28;20157;-70
2022/08/12 11:46:18;;;;;;;9.70;5.25;;;;;;;;;;5015280;28;20049;-70
2022/08/12 11:48:44;;;;;;;5.20;4.80;;;;;;;;;;5008134;28;20064;-70
2022/08/12 11:51:10;;;;;;;9.48;5.90;;;;;;;;;;5011428;28;20459;-70
2022/08/12 11:53:37;;;;;;;9.40;5.28;;;;;;;;;;5014136;28;20042;-70
2022/08/12 11:56:05;;;;;;;6.68;6.05;;;;;;;;;;5013812;28;20049;-69
2022/08/12 11:58:31;;;;;;;7.10;5.30;;;;;;;;;;5014632;28;20528;-69
2022/08/12 12:00:58;;;;;;;17.45;5.60;;;;;;;;;;5004435;28;20057;-69
2022/08/12 12:03:24;;;;;;;8.88;5.10;;;;;;;;;;5000902;28;20439;-69
2022/08/12 12:05:50;;;;;;;9.82;6.43;;;;;;;;;;5005304;28;20069;-69
2022/08/12 12:08:20;;;;;;;8.48;5.93;;;;;;;;;;5013349;28;20038;-70
2022/08/12 12:10:46;;;;;;;7.35;5.32;;;;;;;;;;5013725;28;20053;-69
2022/08/12 12:13:12;;;;;;;7.75;4.75;;;;;;;;;;5013631;28;20041;-70
2022/08/12 12:15:39;;;;;;;10.32;5.03;;;;;;;;;;5013987;28;20033;-70
2022/08/12 12:18:05;;;;;;;8.13;5.32;;;;;;;;;;5014115;28;20056;-70
2022/08/12 12:20:31;;;;;;;7.80;4.95;;;;;;;;;;5024874;28;20045;-70
2022/08/12 12:22:57;;;;;;;11.57;5.22;;;;;;;;;;5028170;28;20045;-69
2022/08/12 12:25:23;;;;;;;13.75;5.15;;;;;;;;;;5012705;28;20049;-70
2022/08/12 12:27:51;;;;;;;10.00;4.82;;;;;;;;;;5008215;28;20064;-70
2022/08/12 12:30:17;;;;;;;8.35;5.05;;;;;;;;;;5013616;28;20512;-70
2022/08/12 12:32:44;;;;;;;8.15;4.75;;;;;;;;;;5014112;28;20037;-70
2022/08/12 12:35:10;;;;;;;10.73;4.90;;;;;;;;;;5013955;28;20404;-70
2022/08/12 12:37:57;;;;;;;15.35;5.82;;;;;;;;;;5014244;28;20046;-70
2022/08/12 12:40:23;;;;;;;7.88;4.97;;;;;;;;;;5014203;28;20034;-70
2022/08/12 12:42:49;;;;;;;12.77;4.88;;;;;;;;;;5013952;28;20574;-70
2022/08/12 12:45:16;;;;;;;10.15;5.25;;;;;;;;;;5015086;28;20072;-70
2022/08/12 12:47:53;;;;;;;8.55;5.18;;;;;;;;;;5013183;28;20133;-69
2022/08/12 12:50:19;;;;;;;6.97;5.15;;;;;;;;;;5014195;28;20068;-69
2022/08/12 12:52:45;;;;;;;7.80;5.10;;;;;;;;;;5014466;28;20054;-69
2022/08/12 12:55:13;;;;;;;5.75;4.85;;;;;;;;;;5013216;28;20038;-69
2022/08/12 12:57:42;;;;;;;10.05;4.75;;;;;;;;;;5014021;28;20057;-69
2022/08/12 13:00:14;;;;;;;7.57;4.82;;;;;;;;;;5025029;28;20132;-69
2022/08/12 13:02:51;;;;;;;7.97;5.15;;;;;;;;;;5034139;28;20053;-68
2022/08/12 13:05:20;;;;;;;15.52;4.90;;;;;;;;;;5033499;28;20045;-71
2022/08/12 13:07:46;;;;;;;7.38;4.30;;;;;;;;;;5021163;28;20046;-71
2022/08/12 13:10:12;;;;;;;6.15;4.60;;;;;;;;;;5015050;28;20064;-71
2022/08/12 13:12:39;;;;;;;4.72;4.25;;;;;;;;;;5013829;28;20045;-70
2022/08/12 13:15:14;;;;;;;9.93;4.57;;;;;;;;;;5014214;28;20081;-71
2022/08/12 13:17:40;;;;;;;7.95;4.25;;;;;;;;;;5013652;28;20531;-71
2022/08/12 13:20:07;;;;;;;6.75;3.95;;;;;;;;;;5014631;28;20034;-71
2022/08/12 13:22:33;;;;;;;8.65;4.63;;;;;;;;;;5013785;28;20555;-71
2022/08/12 13:25:00;;;;;;;9.30;4.38;;;;;;;;;;5014100;28;20060;-71
2022/08/12 13:27:33;;;;;;;6.57;4.30;;;;;;;;;;5013945;28;20038;-71
2022/08/12 13:30:02;;;;;;;9.00;4.72;;;;;;;;;;5014902;28;20052;-71
2022/08/12 13:32:28;;;;;;;6.35;4.47;;;;;;;;;;5013995;28;20042;-71
2022/08/12 13:34:56;;;;;;;9.60;4.18;;;;;;;;;;5013095;28;20052;-71
2022/08/12 13:37:24;;;;;;;7.07;4.03;;;;;;;;;;5017446;28;20048;-71
2022/08/12 13:39:51;;;;;;;9.23;4.40;;;;;;;;;;5018084;28;20084;-71
2022/08/12 13:42:18;;;;;;;14.10;4.13;;;;;;;;;;5018006;28;20073;-71
2022/08/12 13:44:44;;;;;;;7.40;4.32;;;;;;;;;;5018270;28;20103;-71
2022/08/12 13:47:11;;;;;;;15.27;4.57;;;;;;;;;;5036189;28;20072;-71
2022/08/12 13:49:37;;;;;;;6.97;4.03;;;;;;;;;;5037702;28;20140;-71
2022/08/12 13:52:03;;;;;;;5.70;4.20;;;;;;;;;;5028680;28;20588;-71
2022/08/12 13:54:29;;;;;;;5.10;4.18;;;;;;;;;;5011801;28;20049;-71
2022/08/12 13:56:56;;;;;;;9.30;4.75;;;;;;;;;;5017266;28;20038;-71
2022/08/12 13:59:22;;;;;;;8.82;4.55;;;;;;;;;;5017772;28;20042;-71
2022/08/12 14:01:53;;;;;;;6.22;4.10;;;;;;;;;;5017148;28;20068;-71
2022/08/12 14:04:19;;;;;;;8.45;4.20;;;;;;;;;;5017134;28;20069;-71
2022/08/12 14:06:49;;;;;;;8.65;3.75;;;;;;;;;;5018143;28;20042;-71
2022/08/12 14:09:15;;;;;;;7.43;4.35;;;;;;;;;;5017341;28;20469;-71
2022/08/12 14:11:42;;;;;;;12.15;4.50;;;;;;;;;;5016628;28;20046;-71
2022/08/12 14:14:09;;;;;;;16.98;4.18;;;;;;;;;;5017073;28;20042;-71
2022/08/12 14:16:36;;;;;;;5.40;4.13;;;;;;;;;;5016682;28;20099;-71
2022/08/12 14:19:02;;;;;;;6.63;3.78;;;;;;;;;;5017512;28;20033;-71
2022/08/12 14:21:28;;;;;;;6.13;3.90;;;;;;;;;;5015022;28;20505;-71
2022/08/12 14:23:55;;;;;;;5.60;3.90;;;;;;;;;;5017930;28;20041;-71
2022/08/12 14:26:23;;;;;;;8.35;4.32;;;;;;;;;;5017410;28;20045;-71
2022/08/12 14:28:52;;;;;;;12.13;3.55;;;;;;;;;;5016901;28;20038;-71
2022/08/12 14:31:20;;;;;;;6.78;4.65;;;;;;;;;;5016836;28;20594;-71
2022/08/12 14:33:48;;;;;;;12.18;4.50;;;;;;;;;;5016248;28;20038;-71
2022/08/12 14:36:15;;;;;;;8.80;4.70;;;;;;;;;;5017492;28;20041;-71
2022/08/12 14:38:43;;;;;;;9.90;4.13;;;;;;;;;;5017514;28;20052;-71
2022/08/12 14:41:16;;;;;;;11.85;4.95;;;;;;;;;;5007400;28;20045;-71
2022/08/12 14:43:42;;;;;;;9.85;4.20;;;;;;;;;;5016181;28;20088;-71
2022/08/12 14:46:17;;;;;;;10.52;3.75;;;;;;;;;;5016471;28;20030;-71
2022/08/12 14:48:45;;;;;;;7.65;4.25;;;;;;;;;;5016633;28;20052;-71
2022/08/12 14:51:12;;;;;;;12.55;4.47;;;;;;;;;;5015224;28;21259;-71
2022/08/12 14:53:40;;;;;;;13.07;4.30;;;;;;;;;;5017482;28;20076;-71
2022/08/12 14:56:07;;;;;;;11.57;4.25;;;;;;;;;;5015333;28;20034;-71
2022/08/12 14:58:34;;;;;;;8.23;4.40;;;;;;;;;;5015898;28;20076;-71
2022/08/12 15:03:45;;;;;;;8.02;4.38;;;;;;;;;;5011078;28;20095;-71
2022/08/12 15:06:14;;;;;;;9.77;4.13;;;;;;;;;;5017236;28;20037;-71
2022/08/12 15:08:41;;;;;;;12.77;4.60;;;;;;;;;;5016357;28;20125;-71
2022/08/12 15:11:12;;;;;;;7.80;4.45;;;;;;;;;;5016854;28;20551;-71
2022/08/12 15:13:39;;;;;;;9.65;4.05;;;;;;;;;;5016289;28;20037;-71
2022/08/12 15:16:05;;;;;;;14.02;5.05;;;;;;;;;;5016424;28;20381;-71
2022/08/12 15:18:31;;;;;;;9.27;4.68;;;;;;;;;;5016801;28;20570;-71
2022/08/12 15:20:59;;;;;;;8.82;3.90;;;;;;;;;;5015436;28;20058;-69
2022/08/12 15:23:29;;;;;;;11.82;4.28;;;;;;;;;;5015474;28;20046;-72
2022/08/12 15:25:57;;;;;;;15.20;3.85;;;;;;;;;;5016543;28;20120;-72
2022/08/12 15:28:25;;;;;;;11.02;4.57;;;;;;;;;;5016438;28;20048;-72
2022/08/12 15:30:52;;;;;;;14.73;4.30;;;;;;;;;;5015521;28;20050;-72
2022/08/12 15:33:18;;;;;;;9.57;4.95;;;;;;;;;;5015154;28;20049;-72
2022/08/12 15:35:45;;;;;;;13.43;5.13;;;;;;;;;;5015299;28;20044;-71
2022/08/12 15:38:12;;;;;;;11.63;4.28;;;;;;;;;;5016380;28;20552;-72
2022/08/12 15:40:39;;;;;;;9.88;4.05;;;;;;;;;;5012115;28;20046;-71
2022/08/12 15:43:06;;;;;;;9.57;4.57;;;;;;;;;;5013902;28;20557;-71
2022/08/12 15:45:37;;;;;;;8.65;4.00;;;;;;;;;;5016077;28;20053;-73
2022/08/12 15:48:04;;;;;;;;;;;;;;;;;;5015159;28;20057;-73
2022/08/12 15:50:30;;;;;;;11.68;4.10;;;;;;;;;;5015966;28;19909;-72
2022/08/12 15:52:57;;;;;;;16.85;4.40;;;;;;;;;;5026141;28;20052;-72
2022/08/12 15:55:23;;;;;;;12.95;4.47;;;;;;;;;;5005034;28;20126;-72
2022/08/12 15:57:53;;;;;;;10.18;3.97;;;;;;;;;;4996017;28;20124;-72
2022/08/12 16:00:19;;;;;;;11.50;4.25;;;;;;;;;;4995173;28;20563;-71
2022/08/12 16:02:46;;;;;;;14.23;4.43;;;;;;;;;;4995708;28;20046;-71
2022/08/12 16:05:13;;;;;;;12.15;4.75;;;;;;;;;;5013821;28;20030;-71
2022/08/12 16:07:41;;;;;;;10.77;4.68;;;;;;;;;;5014671;28;20048;-71
2022/08/12 16:10:07;;;;;;;7.40;4.70;;;;;;;;;;5014562;28;20034;-71
2022/08/12 16:12:38;;;;;;;11.35;4.18;;;;;;;;;;5015169;28;20497;-71
2022/08/12 16:15:05;;;;;;;9.70;3.60;;;;;;;;;;5031239;28;20508;-71
2022/08/12 16:17:31;;;;;;;8.93;4.30;;;;;;;;;;5034807;28;20045;-71
2022/08/12 16:19:58;;;;;;;11.63;4.18;;;;;;;;;;5031172;28;20489;-71
2022/08/12 16:22:25;;;;;;;10.07;3.88;;;;;;;;;;5026312;28;20496;-71
2022/08/12 16:24:51;;;;;;;11.13;4.30;;;;;;;;;;5034368;28;20029;-71
2022/08/12 16:27:17;;;;;;;7.47;4.13;;;;;;;;;;5034424;28;20088;-70
2022/08/12 16:29:43;;;;;;;10.40;4.90;;;;;;;;;;5034538;28;20044;-72
2022/08/12 16:32:10;;;;;;;8.95;4.28;;;;;;;;;;5034183;28;20045;-71
2022/08/12 16:34:36;;;;;;;8.27;4.75;;;;;;;;;;5034054;28;20080;-71
2022/08/12 16:37:03;;;;;;;7.47;4.68;;;;;;;;;;5034578;28;20045;-71
2022/08/12 16:39:34;;;;;;;8.38;4.25;;;;;;;;;;5034965;28;20388;-71
2022/08/12 16:42:00;;;;;;;7.95;4.45;;;;;;;;;;5034382;28;20052;-71